This is the latest recevied weather packets stored in our database for station/object KB1RMA-13. If no packets are shown the sender has not sent any weather packets the latest 10 day(s).
| Time | Temp. | Humidity | Pressure | Rain* | Wind** | Luminosity | Snow |
|---|---|---|---|---|---|---|---|
| 1777859403 | 5° C | 64% | 1009.4 hPa | 0 mm | - | 0 W/m² | - |
| 1777859099 | 4.44° C | 69% | 1009.4 hPa | 0 mm | - | 0 W/m² | - |
| 1777858796 | 5° C | 67% | 1009.3 hPa | 0 mm | - | 0 W/m² | - |
| 1777858495 | 5.56° C | 63% | 1009.1 hPa | 0 mm | - | 0 W/m² | - |
| 1777858190 | 5.56° C | 60% | 1009.3 hPa | 0 mm | - | 0 W/m² | - |
| 1777857889 | 6.11° C | 58% | 1009.5 hPa | 0 mm | - | 0 W/m² | - |
| 1777857586 | 6.67° C | 56% | 1009.1 hPa | 0 mm | - | 0 W/m² | - |
| 1777857282 | 6.67° C | 55% | 1009 hPa | 0 mm | - | 0 W/m² | - |
| 1777856978 | 7.22° C | 55% | 1009.1 hPa | 0 mm | - | 0 W/m² | - |
| 1777856674 | 7.78° C | 54% | 1009 hPa | 0 mm | - | 0 W/m² | - |
| 1777856370 | 8.89° C | 50% | 1009 hPa | 0 mm | - | 0 W/m² | - |
| 1777856067 | 8.89° C | 49% | 1008.8 hPa | 0 mm | - | 0 W/m² | - |
| 1777855765 | 8.89° C | 49% | 1008.8 hPa | 0 mm | - | 0 W/m² | - |
| 1777855463 | 9.44° C | 48% | 1008.7 hPa | 0 mm | - | 0 W/m² | - |
| 1777855159 | 9.44° C | 48% | 1008.5 hPa | 0 mm | - | 0 W/m² | - |
| 1777854855 | 9.44° C | 48% | 1008.6 hPa | 0 mm | - | 0 W/m² | - |
| 1777854552 | 9.44° C | 47% | 1008.5 hPa | 0 mm | - | 0 W/m² | - |
| 1777854249 | 9.44° C | 46% | 1008.4 hPa | 0 mm | - | 0 W/m² | - |
| 1777853947 | 9.44° C | 46% | 1008.3 hPa | 0 mm | - | 0 W/m² | - |
| 1777853644 | 10° C | 46% | 1008.5 hPa | 0 mm | - | 0 W/m² | - |
| 1777853340 | 10° C | 46% | 1008.2 hPa | 0 mm | - | 0 W/m² | - |
| 1777853038 | 10° C | 45% | 1008.1 hPa | 0 mm | - | 0 W/m² | - |
| 1777852735 | 10° C | 45% | 1008.1 hPa | 0 mm | - | 1 W/m² | - |
| 1777852433 | 10° C | 44% | 1007.8 hPa | 0 mm | - | 1 W/m² | - |
| 1777852130 | 10° C | 44% | 1007.6 hPa | 0 mm | - | 3 W/m² | - |
* Rain latest hour (hover to see other rain measurements)
** Current wind speed in m/s (hover to see current wind gust speed)